Time;durP1;ratioP1;P1;durP2;ratioP2;P2;SDS_P1;SDS_P2;PMS_P1;PMS_P2;Temp;Humidity;BMP_temperature;BMP_pressure;BME280_temperature;BME280_humidity;BME280_pressure;Samples;Min_cycle;Max_cycle;Signal;HPM_P1;HPM_P2
2023/09/16 00:01:50;;;;;;;4.85;2.75;;;14.30;89.00;;;;;;4982331;28;20038;-71
2023/09/16 00:04:17;;;;;;;5.72;2.80;;;14.30;88.60;;;;;;4986982;28;20033;-71
2023/09/16 00:06:43;;;;;;;3.67;2.38;;;14.40;88.70;;;;;;4988439;28;20368;-70
2023/09/16 00:09:08;;;;;;;6.60;2.78;;;14.30;88.90;;;;;;4989944;28;20049;-70
2023/09/16 00:11:34;;;;;;;4.05;2.38;;;14.40;88.80;;;;;;4991656;28;20080;-71
2023/09/16 00:13:59;;;;;;;4.70;2.58;;;14.40;88.70;;;;;;4986199;28;20030;-73
2023/09/16 00:16:24;;;;;;;5.55;2.83;;;14.40;88.50;;;;;;4984287;28;20034;-72
2023/09/16 00:18:50;;;;;;;3.55;2.15;;;14.40;88.70;;;;;;4989634;28;20034;-71
2023/09/16 00:21:16;;;;;;;4.55;2.50;;;14.50;88.60;;;;;;4988055;28;20031;-70
2023/09/16 00:23:42;;;;;;;5.32;2.58;;;14.40;88.30;;;;;;4988781;28;20056;-70
2023/09/16 00:26:07;;;;;;;4.70;2.85;;;14.30;88.90;;;;;;4992389;28;20034;-71
2023/09/16 00:28:35;;;;;;;4.55;2.58;;;14.20;89.10;;;;;;4987086;28;20872;-71
2023/09/16 00:31:01;;;;;;;8.77;2.83;;;14.10;89.20;;;;;;4987524;28;20026;-70
2023/09/16 00:33:27;;;;;;;4.15;2.38;;;14.10;89.00;;;;;;4975492;28;20077;-70
2023/09/16 00:35:52;;;;;;;4.78;2.60;;;14.10;89.30;;;;;;4998357;28;20030;-70
2023/09/16 00:38:17;;;;;;;4.45;2.35;;;14.10;89.40;;;;;;4974312;28;20033;-70
2023/09/16 00:40:43;;;;;;;5.47;2.42;;;14.20;89.00;;;;;;4969166;28;20537;-70
2023/09/16 00:43:09;;;;;;;4.68;2.67;;;14.20;89.20;;;;;;4991091;28;20073;-71
2023/09/16 00:45:35;;;;;;;6.65;2.47;;;14.10;89.40;;;;;;4989533;28;20057;-71
2023/09/16 00:48:00;;;;;;;5.78;2.97;;;14.30;88.80;;;;;;4991515;28;20034;-73
2023/09/16 00:50:26;;;;;;;4.63;2.90;;;14.30;88.90;;;;;;4992197;28;20260;-70
2023/09/16 00:52:57;;;;;;;7.72;2.97;;;14.20;89.10;;;;;;4989354;28;20030;-71
2023/09/16 00:55:23;;;;;;;4.07;2.58;;;14.30;88.70;;;;;;4999010;28;20072;-70
2023/09/16 00:57:52;;;;;;;6.75;2.80;;;14.30;88.80;;;;;;4987547;28;20038;-72
2023/09/16 01:00:18;;;;;;;5.18;2.90;;;14.30;88.80;;;;;;5000031;28;20494;-72
2023/09/16 01:02:44;;;;;;;8.50;2.88;;;14.20;88.90;;;;;;4980492;28;20260;-70
2023/09/16 01:05:17;;;;;;;5.65;2.90;;;14.20;89.00;;;;;;4993787;28;20049;-71
2023/09/16 01:07:45;;;;;;;6.63;2.47;;;14.10;89.20;;;;;;4988005;28;20029;-73
2023/09/16 01:10:13;;;;;;;6.57;2.85;;;14.20;89.10;;;;;;4990771;28;20042;-70
2023/09/16 01:12:39;;;;;;;3.95;2.58;;;14.10;89.10;;;;;;4986857;28;20062;-71
2023/09/16 01:15:08;;;;;;;5.72;2.90;;;14.10;89.30;;;;;;4983916;28;20065;-71
2023/09/16 01:17:40;;;;;;;5.15;2.88;;;14.10;89.30;;;;;;4984140;28;20321;-71
2023/09/16 01:20:10;;;;;;;4.82;2.65;;;14.10;89.30;;;;;;4970139;28;20423;-70
2023/09/16 01:22:38;;;;;;;4.32;2.40;;;14.10;89.50;;;;;;4981013;28;20034;-71
2023/09/16 01:25:05;;;;;;;6.43;2.53;;;14.20;89.10;;;;;;4994121;28;20391;-70
2023/09/16 01:27:31;;;;;;;4.95;2.63;;;14.20;89.20;;;;;;4991742;28;20049;-70
2023/09/16 01:29:57;;;;;;;4.15;2.45;;;14.20;89.20;;;;;;4985521;28;20033;-70
2023/09/16 01:32:28;;;;;;;6.18;2.80;;;14.20;89.10;;;;;;4980681;28;20025;-72
2023/09/16 01:34:55;;;;;;;6.40;3.58;;;14.10;89.40;;;;;;4989931;28;20040;-71
2023/09/16 01:37:23;;;;;;;5.25;2.60;;;14.10;89.30;;;;;;4983619;28;20106;-70
2023/09/16 01:39:59;;;;;;;7.55;2.80;;;14.10;89.60;;;;;;4987573;28;20070;-72
2023/09/16 01:42:28;;;;;;;5.00;2.85;;;14.10;89.60;;;;;;4973202;28;20113;-73
2023/09/16 01:44:54;;;;;;;6.40;2.97;;;14.10;89.50;;;;;;4988611;28;20034;-70
2023/09/16 01:47:20;;;;;;;9.15;2.78;;;14.10;89.60;;;;;;4987160;28;20030;-70
2023/09/16 01:49:45;;;;;;;4.72;2.88;;;14.00;89.70;;;;;;4982993;28;20031;-70
2023/09/16 01:52:11;;;;;;;5.50;2.85;;;14.00;89.90;;;;;;4995462;28;20125;-70
2023/09/16 01:54:36;;;;;;;5.30;3.10;;;14.10;89.60;;;;;;4989748;28;20550;-70
2023/09/16 01:57:02;;;;;;;4.32;2.50;;;14.00;89.70;;;;;;5002601;28;20027;-70
2023/09/16 01:59:28;;;;;;;4.55;2.72;;;14.00;89.90;;;;;;4986323;28;20368;-72
2023/09/16 02:01:53;;;;;;;5.22;2.97;;;14.00;90.00;;;;;;4979251;28;20467;-70
2023/09/16 02:04:19;;;;;;;5.18;3.00;;;14.00;90.20;;;;;;4989291;28;20037;-71
2023/09/16 02:06:46;;;;;;;5.25;2.88;;;14.10;90.10;;;;;;4970714;28;20037;-70
2023/09/16 02:09:13;;;;;;;4.75;2.90;;;14.10;89.90;;;;;;4988005;28;20056;-70
2023/09/16 02:11:38;;;;;;;5.28;3.25;;;14.10;90.00;;;;;;4990633;28;20044;-70
2023/09/16 02:14:04;;;;;;;5.50;2.88;;;14.10;89.90;;;;;;4988325;28;20030;-72
2023/09/16 02:16:31;;;;;;;4.50;2.78;;;14.10;90.00;;;;;;4983766;28;20049;-72
2023/09/16 02:18:56;;;;;;;6.30;3.15;;;14.00;90.10;;;;;;4986770;28;20049;-70
2023/09/16 02:21:22;;;;;;;5.38;3.10;;;14.00;90.30;;;;;;4981428;28;20051;-70
2023/09/16 02:23:48;;;;;;;9.10;3.53;;;14.00;90.40;;;;;;4984923;28;20027;-72
2023/09/16 02:26:13;;;;;;;5.95;3.30;;;14.00;90.60;;;;;;4972850;28;20092;-70
2023/09/16 02:28:40;;;;;;;5.97;2.70;;;13.90;90.60;;;;;;4969792;28;20384;-72
2023/09/16 02:31:06;;;;;;;5.65;3.20;;;13.80;90.70;;;;;;4985816;28;20072;-71
2023/09/16 02:33:32;;;;;;;6.47;3.35;;;13.80;91.00;;;;;;4984552;28;20087;-71
2023/09/16 02:35:57;;;;;;;4.68;2.90;;;13.70;91.10;;;;;;4987780;28;20034;-71
2023/09/16 02:38:23;;;;;;;7.03;3.00;;;13.70;91.30;;;;;;4989136;28;20152;-70
2023/09/16 02:40:48;;;;;;;6.72;3.13;;;13.60;91.60;;;;;;4976331;28;20043;-71
2023/09/16 02:43:14;;;;;;;5.20;3.35;;;13.50;91.70;;;;;;4988040;28;20470;-71
2023/09/16 02:45:41;;;;;;;4.97;3.40;;;13.50;92.00;;;;;;4986116;28;20034;-70
2023/09/16 02:48:06;;;;;;;7.10;3.42;;;13.50;92.30;;;;;;4984365;28;20061;-70
2023/09/16 02:50:38;;;;;;;7.72;3.28;;;13.40;92.30;;;;;;4983353;28;20592;-70
2023/09/16 02:53:04;;;;;;;7.93;4.03;;;13.50;92.40;;;;;;4982343;28;20042;-70
2023/09/16 02:55:33;;;;;;;6.72;3.63;;;13.40;92.70;;;;;;4995071;28;20378;-71
2023/09/16 02:58:00;;;;;;;6.22;3.38;;;13.40;92.50;;;;;;4979020;28;20042;-72
2023/09/16 03:00:25;;;;;;;7.75;3.72;;;13.40;92.50;;;;;;4988752;28;20184;-70
2023/09/16 03:02:51;;;;;;;6.63;3.70;;;13.40;92.60;;;;;;4990040;28;20116;-72
2023/09/16 03:05:17;;;;;;;5.88;3.97;;;13.30;92.90;;;;;;4991322;28;20043;-71
2023/09/16 03:07:44;;;;;;;8.00;3.97;;;13.30;93.00;;;;;;4991061;28;20034;-72
2023/09/16 03:10:09;;;;;;;7.78;3.75;;;13.30;93.00;;;;;;4989905;28;20042;-69
2023/09/16 03:12:35;;;;;;;6.22;3.13;;;13.20;93.00;;;;;;4988739;28;20038;-70
2023/09/16 03:15:00;;;;;;;7.93;4.28;;;13.30;93.30;;;;;;4990614;28;20466;-70
2023/09/16 03:17:26;;;;;;;6.55;3.92;;;13.20;93.30;;;;;;4987853;28;20038;-70
2023/09/16 03:19:52;;;;;;;8.07;4.10;;;13.20;93.50;;;;;;4982084;28;20077;-71
2023/09/16 03:22:18;;;;;;;6.35;4.20;;;13.20;93.70;;;;;;4986137;28;20034;-70
2023/09/16 03:24:43;;;;;;;7.78;4.50;;;13.10;93.50;;;;;;4986474;28;20046;-70
2023/09/16 03:27:09;;;;;;;7.93;4.00;;;13.10;93.90;;;;;;4993969;28;20038;-70
2023/09/16 03:29:34;;;;;;;7.70;3.92;;;13.00;93.90;;;;;;4983229;28;20379;-70
2023/09/16 03:32:00;;;;;;;7.43;4.22;;;13.00;94.10;;;;;;4978704;28;20519;-70
2023/09/16 03:34:25;;;;;;;6.78;4.45;;;13.00;94.20;;;;;;4987910;28;20105;-70
2023/09/16 03:36:51;;;;;;;7.10;4.28;;;13.00;94.30;;;;;;4992890;28;20390;-70
2023/09/16 03:39:17;;;;;;;8.52;4.43;;;13.00;94.30;;;;;;4990398;28;20391;-70
2023/09/16 03:41:42;;;;;;;8.13;4.63;;;12.90;94.20;;;;;;4985193;28;20498;-70
2023/09/16 03:44:09;;;;;;;7.30;5.03;;;12.80;94.30;;;;;;4987397;28;20046;-71
2023/09/16 03:46:35;;;;;;;8.45;4.35;;;12.80;94.70;;;;;;4988001;28;20394;-70
2023/09/16 03:49:01;;;;;;;8.48;4.80;;;12.80;94.60;;;;;;4985247;28;20113;-71
2023/09/16 03:51:27;;;;;;;7.32;4.50;;;12.70;94.90;;;;;;4991574;28;20471;-70
2023/09/16 03:53:53;;;;;;;8.85;5.20;;;12.70;95.00;;;;;;4992608;28;20417;-71
2023/09/16 03:56:19;;;;;;;7.47;4.78;;;12.70;95.00;;;;;;4996088;28;20045;-70
2023/09/16 03:58:44;;;;;;;8.23;4.93;;;12.70;95.30;;;;;;4972348;28;20042;-70
2023/09/16 04:01:10;;;;;;;8.40;4.80;;;12.70;95.20;;;;;;4983605;28;20471;-70
2023/09/16 04:03:35;;;;;;;8.18;5.18;;;12.70;95.30;;;;;;4984662;28;20038;-71
2023/09/16 04:06:03;;;;;;;8.18;5.40;;;12.70;95.40;;;;;;4986201;28;20036;-70
2023/09/16 04:08:29;;;;;;;8.52;5.30;;;12.60;95.40;;;;;;5001495;28;20030;-70
2023/09/16 04:10:55;;;;;;;8.07;5.20;;;12.70;95.50;;;;;;4992568;28;20502;-69
2023/09/16 04:13:22;;;;;;;9.05;5.70;;;12.70;95.60;;;;;;4989659;28;20136;-70
2023/09/16 04:15:48;;;;;;;9.07;5.20;;;12.70;95.60;;;;;;4987608;28;20080;-71
2023/09/16 04:18:13;;;;;;;8.27;5.47;;;12.70;95.50;;;;;;4980019;28;20034;-70
2023/09/16 04:20:39;;;;;;;7.63;5.38;;;12.70;95.60;;;;;;4986231;28;20047;-70
2023/09/16 04:23:04;;;;;;;8.10;5.72;;;12.70;95.70;;;;;;4994538;28;20038;-70
2023/09/16 04:25:30;;;;;;;7.57;5.18;;;12.70;95.60;;;;;;4998600;28;20068;-69
2023/09/16 04:27:55;;;;;;;9.82;5.55;;;12.60;95.60;;;;;;4989212;28;20092;-65
2023/09/16 04:30:21;;;;;;;8.48;5.22;;;12.60;95.90;;;;;;4986905;28;20434;-66
2023/09/16 04:32:46;;;;;;;8.15;5.30;;;12.50;95.90;;;;;;4993468;28;20044;-66
2023/09/16 04:35:12;;;;;;;8.48;5.70;;;12.50;96.00;;;;;;4974052;28;20041;-65
2023/09/16 04:37:37;;;;;;;8.07;5.63;;;12.50;96.00;;;;;;4983154;28;20475;-67
2023/09/16 04:40:12;;;;;;;8.48;5.30;;;12.50;96.30;;;;;;4969502;28;20093;-65
2023/09/16 04:42:38;;;;;;;8.80;5.40;;;12.60;96.20;;;;;;4981411;28;20034;-66
2023/09/16 04:45:05;;;;;;;9.32;5.68;;;12.50;96.30;;;;;;4990350;28;20081;-69
2023/09/16 04:47:31;;;;;;;9.57;6.07;;;12.50;96.20;;;;;;4992621;28;20056;-65
2023/09/16 04:49:56;;;;;;;8.90;6.15;;;12.60;96.30;;;;;;4970286;28;20034;-66
2023/09/16 04:52:25;;;;;;;8.25;5.85;;;12.60;96.30;;;;;;4993434;28;20104;-65
2023/09/16 04:54:53;;;;;;;9.85;6.60;;;12.60;96.40;;;;;;4992946;28;20038;-66
2023/09/16 04:57:19;;;;;;;9.75;6.95;;;12.50;96.40;;;;;;4987690;28;20471;-65
2023/09/16 04:59:45;;;;;;;7.97;5.88;;;12.60;96.50;;;;;;4980758;28;20030;-66
2023/09/16 05:02:11;;;;;;;13.18;7.32;;;12.60;96.50;;;;;;4995804;28;20048;-65
2023/09/16 05:04:36;;;;;;;9.38;6.97;;;12.60;96.50;;;;;;4988973;28;20209;-65
2023/09/16 05:07:04;;;;;;;11.88;7.25;;;12.70;96.50;;;;;;4995208;28;20109;-66
2023/09/16 05:09:30;;;;;;;10.38;6.78;;;12.60;96.40;;;;;;4972676;28;20299;-65
2023/09/16 05:11:55;;;;;;;12.50;6.72;;;12.70;96.30;;;;;;4988738;28;20030;-66
2023/09/16 05:14:21;;;;;;;10.45;7.15;;;12.70;96.40;;;;;;4985718;28;20066;-65
2023/09/16 05:16:46;;;;;;;10.18;6.68;;;12.70;96.30;;;;;;4988892;28;20787;-65
2023/09/16 05:19:12;;;;;;;10.02;7.00;;;12.70;96.40;;;;;;4978592;28;20582;-65
2023/09/16 05:21:38;;;;;;;11.48;6.72;;;12.70;96.30;;;;;;4990014;28;20081;-67
2023/09/16 05:24:04;;;;;;;9.02;6.47;;;12.70;96.50;;;;;;4995212;28;20450;-65
2023/09/16 05:26:30;;;;;;;11.63;7.38;;;12.80;96.40;;;;;;4989277;28;20039;-68
2023/09/16 05:28:56;;;;;;;14.63;7.93;;;12.80;96.40;;;;;;4991399;28;20026;-66
2023/09/16 05:31:23;;;;;;;9.48;7.00;;;12.80;96.40;;;;;;4992966;28;20402;-66
2023/09/16 05:33:49;;;;;;;9.93;6.68;;;12.80;96.40;;;;;;4987004;28;20034;-65
2023/09/16 05:36:15;;;;;;;10.77;7.38;;;12.80;96.40;;;;;;4991428;28;20054;-65
2023/09/16 05:38:41;;;;;;;9.88;7.63;;;12.80;96.30;;;;;;4988703;28;20120;-67
2023/09/16 05:41:06;;;;;;;11.10;7.43;;;12.90;96.40;;;;;;4991276;28;20427;-66
2023/09/16 05:43:32;;;;;;;10.40;7.18;;;12.90;96.30;;;;;;4985398;28;20030;-65
2023/09/16 05:45:58;;;;;;;9.25;7.10;;;13.00;96.30;;;;;;4977982;28;20125;-67
2023/09/16 05:48:24;;;;;;;10.82;7.70;;;13.00;96.30;;;;;;4983657;28;20077;-66
2023/09/16 05:50:57;;;;;;;10.48;7.00;;;13.00;96.30;;;;;;4969507;28;20411;-65
2023/09/16 05:53:23;;;;;;;9.85;7.43;;;13.10;96.30;;;;;;4974670;28;20193;-67
2023/09/16 05:55:49;;;;;;;11.20;7.50;;;13.20;96.20;;;;;;4987252;28;20468;-65
2023/09/16 05:58:14;;;;;;;10.48;6.53;;;13.30;96.10;;;;;;4985114;28;21931;-66
2023/09/16 06:00:40;;;;;;;12.05;7.20;;;13.50;96.00;;;;;;4979464;28;20042;-66
2023/09/16 06:03:05;;;;;;;9.55;6.88;;;13.60;95.60;;;;;;4985587;28;20088;-65
2023/09/16 06:05:33;;;;;;;10.95;6.97;;;13.70;95.30;;;;;;4983065;28;20511;-65
2023/09/16 06:07:58;;;;;;;11.85;6.55;;;13.80;95.00;;;;;;4988847;28;20069;-65
2023/09/16 06:10:24;;;;;;;9.10;6.07;;;13.80;94.90;;;;;;4990351;28;20027;-66
2023/09/16 06:12:50;;;;;;;7.90;5.78;;;13.80;94.80;;;;;;4980095;28;20059;-66
2023/09/16 06:15:15;;;;;;;9.65;6.10;;;13.80;94.80;;;;;;4987512;28;20571;-68
2023/09/16 06:17:41;;;;;;;8.90;5.95;;;13.90;94.60;;;;;;4981037;28;20030;-66
2023/09/16 06:20:07;;;;;;;9.18;5.80;;;14.00;94.50;;;;;;4980595;28;20081;-69
2023/09/16 06:22:32;;;;;;;10.52;5.82;;;14.00;94.40;;;;;;4987496;28;20036;-65
2023/09/16 06:24:58;;;;;;;7.85;5.32;;;13.90;94.50;;;;;;4990162;28;20465;-66
2023/09/16 06:27:23;;;;;;;7.05;5.13;;;14.00;94.50;;;;;;4989048;28;20038;-69
2023/09/16 06:29:50;;;;;;;7.53;5.07;;;14.00;94.40;;;;;;4984417;28;20038;-67
2023/09/16 06:32:16;;;;;;;9.30;6.22;;;14.10;94.30;;;;;;4981933;28;20034;-66
2023/09/16 06:34:41;;;;;;;9.60;5.85;;;14.20;94.00;;;;;;4983853;28;20485;-66
2023/09/16 06:37:07;;;;;;;9.27;5.45;;;14.40;93.60;;;;;;4986231;28;20031;-66
2023/09/16 06:39:33;;;;;;;9.48;5.75;;;14.60;93.40;;;;;;4984391;28;20134;-66
2023/09/16 06:41:58;;;;;;;12.35;5.20;;;14.70;92.90;;;;;;4977832;28;20080;-67
2023/09/16 06:44:24;;;;;;;8.45;5.20;;;15.00;92.50;;;;;;4990928;28;20035;-66
2023/09/16 06:46:49;;;;;;;6.57;4.45;;;15.10;92.00;;;;;;4986839;28;20053;-66
2023/09/16 06:49:17;;;;;;;8.27;4.75;;;15.20;91.10;;;;;;4988271;28;20388;-65
2023/09/16 06:51:43;;;;;;;10.85;4.93;;;15.40;90.80;;;;;;4986997;28;20082;-66
2023/09/16 06:54:08;;;;;;;7.35;4.50;;;15.50;90.40;;;;;;4990790;28;20072;-67
2023/09/16 06:56:34;;;;;;;8.73;4.78;;;15.70;90.10;;;;;;4993947;28;20042;-66
2023/09/16 06:59:01;;;;;;;8.80;4.10;;;15.90;89.90;;;;;;4983666;28;20036;-66
2023/09/16 07:01:27;;;;;;;5.88;3.97;;;16.00;89.00;;;;;;4989368;28;20043;-66
2023/09/16 07:03:52;;;;;;;6.93;4.35;;;16.00;88.90;;;;;;4986478;28;20360;-66
2023/09/16 07:06:17;;;;;;;5.40;3.50;;;16.00;88.50;;;;;;4990062;28;20040;-67
2023/09/16 07:08:43;;;;;;;6.13;3.33;;;16.00;88.80;;;;;;4987083;28;20073;-66
2023/09/16 07:11:11;;;;;;;6.57;4.00;;;16.10;88.20;;;;;;4972134;28;20096;-66
2023/09/16 07:13:36;;;;;;;6.00;3.85;;;16.10;87.90;;;;;;4985687;28;20125;-66
2023/09/16 07:16:02;;;;;;;6.30;3.70;;;16.20;87.90;;;;;;4988858;28;20535;-66
2023/09/16 07:18:27;;;;;;;6.72;3.58;;;16.30;88.10;;;;;;4990135;28;20042;-67
2023/09/16 07:20:53;;;;;;;7.15;3.60;;;16.40;88.10;;;;;;4989554;28;20046;-66
2023/09/16 07:23:18;;;;;;;7.13;3.70;;;16.50;86.90;;;;;;4988109;28;20379;-65
2023/09/16 07:25:56;;;;;;;6.97;3.55;;;16.60;87.00;;;;;;4991633;28;20113;-66
2023/09/16 07:28:24;;;;;;;7.47;3.60;;;16.70;86.70;;;;;;4984750;28;20141;-66
2023/09/16 07:30:50;;;;;;;5.05;3.40;;;16.80;86.90;;;;;;4988231;28;20045;-67
2023/09/16 07:33:15;;;;;;;4.82;3.30;;;16.80;86.10;;;;;;4987823;28;20479;-66
2023/09/16 07:35:41;;;;;;;7.43;3.90;;;16.70;86.30;;;;;;4980357;28;20045;-65
2023/09/16 07:38:06;;;;;;;5.97;3.45;;;16.70;86.20;;;;;;4984541;28;20484;-66
2023/09/16 07:40:32;;;;;;;7.57;3.33;;;16.70;86.30;;;;;;4973950;28;20073;-67
2023/09/16 07:42:58;;;;;;;7.80;3.47;;;16.70;86.20;;;;;;4984170;28;20112;-68
2023/09/16 07:45:24;;;;;;;5.72;3.50;;;16.80;86.20;;;;;;4985784;28;20038;-66
2023/09/16 07:47:49;;;;;;;6.38;3.30;;;16.80;86.00;;;;;;4991044;28;20419;-65
2023/09/16 07:50:14;;;;;;;5.82;3.50;;;16.90;85.90;;;;;;4988026;28;20561;-66
2023/09/16 07:52:40;;;;;;;6.32;3.70;;;17.00;85.20;;;;;;4990301;28;20093;-68
2023/09/16 07:55:07;;;;;;;6.75;3.03;;;17.00;85.10;;;;;;4988644;28;20092;-66
2023/09/16 07:57:33;;;;;;;6.00;3.65;;;17.00;85.10;;;;;;4986654;28;20077;-67
2023/09/16 07:59:59;;;;;;;5.32;3.45;;;17.00;85.10;;;;;;4988173;28;20451;-66
2023/09/16 08:02:24;;;;;;;6.13;3.30;;;17.10;85.10;;;;;;4982416;28;20486;-66
2023/09/16 08:04:50;;;;;;;6.72;3.42;;;17.10;84.60;;;;;;4985481;28;21397;-65
2023/09/16 08:07:15;;;;;;;7.13;3.58;;;17.30;85.10;;;;;;4982088;28;20031;-66
2023/09/16 08:09:41;;;;;;;5.03;3.03;;;17.40;84.50;;;;;;4978808;28;20390;-67
2023/09/16 08:12:06;;;;;;;6.35;3.60;;;17.30;83.90;;;;;;4984894;28;20038;-66
2023/09/16 08:14:32;;;;;;;6.38;3.08;;;17.30;84.20;;;;;;4982801;28;20377;-67
2023/09/16 08:17:02;;;;;;;6.30;3.60;;;17.30;84.20;;;;;;4981340;28;20137;-66
2023/09/16 08:19:28;;;;;;;5.18;3.40;;;17.20;84.50;;;;;;4987382;28;20077;-66
2023/09/16 08:21:53;;;;;;;7.93;3.38;;;17.00;85.30;;;;;;4969117;28;20061;-66
2023/09/16 08:24:19;;;;;;;4.53;3.28;;;17.10;85.10;;;;;;4989543;28;20038;-66
2023/09/16 08:26:44;;;;;;;4.57;3.13;;;17.50;85.40;;;;;;4992297;28;20035;-68
2023/09/16 08:29:10;;;;;;;6.50;3.22;;;17.50;84.20;;;;;;4976730;28;20544;-67
2023/09/16 08:31:35;;;;;;;5.72;3.70;;;17.70;84.90;;;;;;4980433;28;20364;-66
2023/09/16 08:34:04;;;;;;;7.88;3.15;;;17.60;83.80;;;;;;4982568;28;20031;-66
2023/09/16 08:36:29;;;;;;;5.03;3.22;;;17.70;84.30;;;;;;4989030;28;20042;-66
2023/09/16 08:38:55;;;;;;;6.15;3.20;;;17.80;83.30;;;;;;4993980;28;20696;-68
2023/09/16 08:41:30;;;;;;;6.75;2.95;;;18.00;83.40;;;;;;4979488;28;20039;-65
2023/09/16 08:43:59;;;;;;;4.55;3.05;;;18.30;83.10;;;;;;4993002;28;20037;-68
2023/09/16 08:46:29;;;;;;;5.20;3.08;;;18.20;81.80;;;;;;4989280;28;20066;-67
2023/09/16 08:48:55;;;;;;;5.93;3.03;;;18.60;82.90;;;;;;5000264;28;20034;-65
2023/09/16 08:51:21;;;;;;;4.97;2.83;;;18.70;82.40;;;;;;4987058;28;20081;-67
2023/09/16 08:53:50;;;;;;;5.90;3.33;;;18.60;81.30;;;;;;4986838;28;20046;-66
2023/09/16 08:56:16;;;;;;;5.80;3.03;;;18.80;81.60;;;;;;4987059;28;20022;-67
2023/09/16 08:58:44;;;;;;;9.63;2.92;;;18.90;82.50;;;;;;4987177;28;20034;-65
2023/09/16 09:01:11;;;;;;;4.45;2.92;;;19.20;82.40;;;;;;4979080;28;20480;-68
2023/09/16 09:03:36;;;;;;;4.25;2.60;;;19.20;80.70;;;;;;4980956;28;20046;-68
2023/09/16 09:06:03;;;;;;;7.68;3.00;;;19.00;80.60;;;;;;4985734;28;20493;-67
2023/09/16 09:08:31;;;;;;;4.50;2.88;;;19.00;81.40;;;;;;4985678;28;20453;-69
2023/09/16 09:10:57;;;;;;;5.05;2.95;;;19.20;81.20;;;;;;4983382;28;20481;-67
2023/09/16 09:13:24;;;;;;;4.45;2.47;;;19.30;79.90;;;;;;4979372;28;20053;-67
2023/09/16 09:15:51;;;;;;;6.55;2.67;;;19.50;80.80;;;;;;4965595;28;20034;-67
2023/09/16 09:18:18;;;;;;;5.72;2.97;;;19.60;79.80;;;;;;4981461;28;20378;-68
2023/09/16 09:20:44;;;;;;;6.80;2.70;;;19.70;80.30;;;;;;4984587;28;20589;-66
2023/09/16 09:23:09;;;;;;;4.60;2.70;;;19.70;79.80;;;;;;4986970;28;20037;-66
2023/09/16 09:25:41;;;;;;;3.78;2.35;;;19.90;79.70;;;;;;4983937;28;20108;-66
2023/09/16 09:28:07;;;;;;;4.97;2.28;;;20.10;79.10;;;;;;4993480;28;20053;-66
2023/09/16 09:30:32;;;;;;;4.32;2.40;;;20.50;79.20;;;;;;4992807;28;20460;-67
2023/09/16 09:32:59;;;;;;;5.25;2.60;;;20.40;76.70;;;;;;4981500;28;20073;-68
2023/09/16 09:35:29;;;;;;;4.35;2.47;;;20.50;77.20;;;;;;4980133;28;20418;-66
2023/09/16 09:37:56;;;;;;;4.15;2.30;;;20.30;76.90;;;;;;4986122;28;20105;-66
2023/09/16 09:40:22;;;;;;;4.55;2.58;;;20.50;77.10;;;;;;4987431;28;20117;-67
2023/09/16 09:42:49;;;;;;;4.20;2.45;;;20.90;76.20;;;;;;4980014;28;20106;-68
2023/09/16 09:45:17;;;;;;;5.85;2.38;;;20.80;77.70;;;;;;4986603;28;20022;-66
2023/09/16 09:47:43;;;;;;;3.60;2.45;;;21.30;77.10;;;;;;4964583;28;20037;-68
2023/09/16 09:50:13;;;;;;;6.13;2.47;;;21.50;74.70;;;;;;4983046;28;20026;-66
2023/09/16 09:52:39;;;;;;;5.07;2.50;;;21.80;75.60;;;;;;4986794;28;20038;-67
2023/09/16 09:55:05;;;;;;;4.35;2.42;;;21.80;74.30;;;;;;4987764;28;20030;-67
2023/09/16 09:57:31;;;;;;;4.38;2.50;;;22.00;73.50;;;;;;4977914;28;20133;-68
2023/09/16 09:59:57;;;;;;;4.57;2.67;;;21.90;73.50;;;;;;4979739;28;20046;-67
2023/09/16 10:02:26;;;;;;;4.30;2.53;;;21.90;73.60;;;;;;4978962;28;20069;-66
2023/09/16 10:05:01;;;;;;;3.75;2.20;;;22.20;73.80;;;;;;4985747;28;20549;-69
2023/09/16 10:07:27;;;;;;;3.72;2.30;;;22.40;72.30;;;;;;4981419;28;20493;-69
2023/09/16 10:09:53;;;;;;;5.55;2.30;;;22.50;73.50;;;;;;4985641;28;20105;-66
2023/09/16 10:12:20;;;;;;;4.75;2.30;;;22.50;72.10;;;;;;4991192;28;20516;-66
2023/09/16 10:14:46;;;;;;;3.95;2.28;;;22.50;71.60;;;;;;4988763;28;20034;-66
2023/09/16 10:17:12;;;;;;;6.20;2.30;;;22.60;71.20;;;;;;4979568;28;20041;-66
2023/09/16 10:19:38;;;;;;;5.40;2.38;;;22.60;70.80;;;;;;4988719;28;20034;-66
2023/09/16 10:22:03;;;;;;;4.53;2.67;;;22.70;70.30;;;;;;4984339;28;20053;-66
2023/09/16 10:24:29;;;;;;;4.22;2.22;;;22.70;69.90;;;;;;4985789;28;20499;-66
2023/09/16 10:27:00;;;;;;;4.03;2.35;;;23.10;69.60;;;;;;4982747;28;20167;-66
2023/09/16 10:29:29;;;;;;;4.28;2.33;;;23.40;70.10;;;;;;4980310;28;20026;-66
2023/09/16 10:31:55;;;;;;;3.92;2.40;;;23.70;70.00;;;;;;4984078;28;20406;-67
2023/09/16 10:34:21;;;;;;;3.63;2.10;;;24.00;69.50;;;;;;4984134;28;20538;-67
2023/09/16 10:36:47;;;;;;;3.97;2.53;;;23.90;66.00;;;;;;4982424;28;20043;-67
2023/09/16 10:39:15;;;;;;;4.70;2.33;;;24.20;67.60;;;;;;4986870;28;20057;-66
2023/09/16 10:41:43;;;;;;;5.95;2.20;;;24.20;63.60;;;;;;4988229;28;20120;-66
2023/09/16 10:44:11;;;;;;;5.40;2.10;;;24.50;67.50;;;;;;4987420;28;20503;-67
2023/09/16 10:46:38;;;;;;;7.55;1.92;;;24.60;60.60;;;;;;4989247;28;20534;-69
2023/09/16 10:49:04;;;;;;;5.30;1.95;;;24.40;62.40;;;;;;4989078;28;20038;-65
2023/09/16 10:51:38;;;;;;;3.03;1.60;;;24.60;60.80;;;;;;4985779;28;20498;-67
2023/09/16 10:54:20;;;;;;;3.13;1.73;;;24.60;61.40;;;;;;4989137;28;20084;-67
2023/09/16 10:56:47;;;;;;;4.47;1.75;;;24.50;62.70;;;;;;4985278;28;20375;-66
2023/09/16 10:59:17;;;;;;;3.83;1.88;;;24.60;62.10;;;;;;4987351;28;20034;-66
2023/09/16 11:01:55;;;;;;;2.90;1.97;;;24.90;61.80;;;;;;4983369;28;20030;-66
2023/09/16 11:04:20;;;;;;;2.55;1.50;;;25.10;59.50;;;;;;4986811;28;20037;-67
2023/09/16 11:06:50;;;;;;;4.22;1.60;;;25.50;59.90;;;;;;4991092;28;20050;-69
2023/09/16 11:09:18;;;;;;;4.57;1.77;;;25.70;59.10;;;;;;4988562;28;20034;-68
2023/09/16 11:11:45;;;;;;;2.72;1.60;;;26.00;61.50;;;;;;4990152;28;20084;-66
2023/09/16 11:14:11;;;;;;;4.90;2.10;;;25.70;57.40;;;;;;4989729;28;20141;-67
2023/09/16 11:16:49;;;;;;;3.25;1.73;;;25.80;56.90;;;;;;4989492;28;20042;-67
2023/09/16 11:19:15;;;;;;;3.45;1.77;;;25.70;56.10;;;;;;4989167;28;20037;-67
2023/09/16 11:21:43;;;;;;;3.00;1.65;;;25.60;54.40;;;;;;4988747;28;20125;-67
2023/09/16 11:24:10;;;;;;;2.35;1.52;;;25.80;56.40;;;;;;4985861;28;20050;-67
2023/09/16 11:26:37;;;;;;;3.95;1.67;;;26.00;54.20;;;;;;4987173;28;20042;-67
2023/09/16 11:29:17;;;;;;;1.75;1.40;;;26.30;54.40;;;;;;4989108;28;20109;-66
2023/09/16 11:31:43;;;;;;;2.65;1.40;;;25.60;53.40;;;;;;4986599;28;20045;-67
2023/09/16 11:34:11;;;;;;;2.47;1.55;;;25.90;53.20;;;;;;4982626;28;20101;-67
2023/09/16 11:36:43;;;;;;;2.40;1.65;;;25.80;53.00;;;;;;4987422;28;20644;-67
2023/09/16 11:39:10;;;;;;;2.17;1.20;;;25.90;52.80;;;;;;4982620;28;20116;-67
2023/09/16 11:41:36;;;;;;;2.75;1.50;;;25.80;53.40;;;;;;4981722;28;20042;-67
2023/09/16 11:44:02;;;;;;;3.33;1.42;;;26.20;52.00;;;;;;4986581;28;20026;-67
2023/09/16 11:46:29;;;;;;;2.90;1.33;;;26.40;50.70;;;;;;4988389;28;20034;-69
2023/09/16 11:48:57;;;;;;;2.40;1.40;;;26.70;51.50;;;;;;4993959;28;20030;-67
2023/09/16 11:51:25;;;;;;;2.40;1.35;;;26.40;51.80;;;;;;4986518;28;20049;-67
2023/09/16 11:53:52;;;;;;;1.85;1.27;;;26.50;49.30;;;;;;4983119;28;20105;-66
2023/09/16 11:56:22;;;;;;;2.28;1.20;;;26.80;50.20;;;;;;4988216;28;20030;-67
2023/09/16 11:58:48;;;;;;;3.58;1.50;;;27.00;50.70;;;;;;4985316;28;20049;-67
2023/09/16 12:01:21;;;;;;;2.05;1.25;;;27.20;49.80;;;;;;4979448;28;20069;-67
2023/09/16 12:03:47;;;;;;;3.10;1.40;;;27.10;49.10;;;;;;4983329;28;20121;-67
2023/09/16 12:06:14;;;;;;;1.77;1.27;;;27.50;49.40;;;;;;4986537;28;20037;-67
2023/09/16 12:08:42;;;;;;;1.85;1.25;;;27.60;48.80;;;;;;4986430;28;20038;-68
2023/09/16 12:11:07;;;;;;;2.05;1.23;;;27.60;49.10;;;;;;4990450;28;20034;-71
2023/09/16 12:13:33;;;;;;;4.28;1.48;;;27.40;48.50;;;;;;4991446;28;20038;-69
2023/09/16 12:15:59;;;;;;;3.67;1.38;;;28.10;47.20;;;;;;4983265;28;20088;-69
2023/09/16 12:18:25;;;;;;;2.30;1.20;;;28.10;48.90;;;;;;4984730;28;20061;-67
2023/09/16 12:20:52;;;;;;;1.92;1.35;;;28.00;47.70;;;;;;4994107;28;20046;-67
2023/09/16 12:23:18;;;;;;;2.17;1.48;;;28.20;46.50;;;;;;4988913;28;20097;-68
2023/09/16 12:25:45;;;;;;;2.75;1.55;;;28.70;47.20;;;;;;4997173;28;20062;-67
2023/09/16 12:28:16;;;;;;;3.25;1.20;;;28.50;46.30;;;;;;4991126;28;20084;-67
2023/09/16 12:30:43;;;;;;;3.55;1.67;;;29.00;46.10;;;;;;4992370;28;20038;-68
2023/09/16 12:33:09;;;;;;;2.90;1.55;;;28.50;45.10;;;;;;4983526;28;20487;-67
2023/09/16 12:35:38;;;;;;;3.35;1.20;;;29.00;47.30;;;;;;4992047;28;20121;-67
2023/09/16 12:38:04;;;;;;;2.08;1.20;;;29.50;45.90;;;;;;4990145;28;20046;-67
2023/09/16 12:40:31;;;;;;;1.88;1.25;;;28.90;46.90;;;;;;4987366;28;20031;-67
2023/09/16 12:42:57;;;;;;;2.13;1.20;;;29.30;45.50;;;;;;4987067;28;20042;-69